createdAt,value
2023-02-09T00:01:59.593Z,50
2023-02-09T00:07:35.113Z,46
2023-02-09T00:13:10.490Z,56
2023-02-09T00:18:45.420Z,36
2023-02-09T00:24:20.872Z,69
2023-02-09T00:29:57.247Z,82
2023-02-09T00:35:54.160Z,89
2023-02-09T00:41:33.768Z,77
2023-02-09T00:47:30.411Z,69
2023-02-09T00:53:24.430Z,40
2023-02-09T00:59:26.638Z,36
2023-02-09T01:05:03.081Z,52
2023-02-09T01:10:46.476Z,36
2023-02-09T01:16:23.793Z,52
2023-02-09T01:22:00.374Z,57
2023-02-09T01:27:44.953Z,63
2023-02-09T01:33:20.445Z,32
2023-02-09T01:38:55.459Z,44
2023-02-09T01:44:32.964Z,75
2023-02-09T01:50:14.391Z,30
2023-02-09T01:55:49.921Z,22
2023-02-09T02:01:26.099Z,34
2023-02-09T02:07:12.082Z,52
2023-02-09T02:12:46.958Z,46
2023-02-09T02:18:22.492Z,38
2023-02-09T02:23:57.746Z,24
2023-02-09T02:30:01.458Z,42
2023-02-09T02:35:45.042Z,48
2023-02-09T02:41:23.927Z,88
2023-02-09T02:47:20.651Z,56
2023-02-09T02:52:53.188Z,36
2023-02-09T02:58:36.990Z,16
2023-02-09T03:04:12.299Z,22
2023-02-09T03:09:52.263Z,44
2023-02-09T03:15:27.557Z,20
2023-02-09T03:21:03.772Z,40
2023-02-09T03:26:39.650Z,54
2023-02-09T03:32:14.645Z,20
2023-02-09T03:37:49.581Z,18
2023-02-09T03:43:24.744Z,22
2023-02-09T03:49:26.970Z,42
2023-02-09T03:54:59.474Z,18
2023-02-09T04:00:34.927Z,20
2023-02-09T04:06:10.364Z,26
2023-02-09T04:11:45.159Z,18
2023-02-09T04:17:23.298Z,20
2023-02-09T04:23:26.218Z,24
2023-02-09T04:29:04.946Z,18
2023-02-09T04:34:44.616Z,16
2023-02-09T04:40:22.379Z,40
2023-02-09T04:45:58.375Z,18
2023-02-09T04:51:54.897Z,26
2023-02-09T04:57:30.610Z,22
2023-02-09T05:03:05.898Z,20
2023-02-09T05:08:40.954Z,30
2023-02-09T05:14:16.862Z,36
2023-02-09T05:19:52.466Z,18
2023-02-09T05:25:28.767Z,40
2023-02-09T05:31:06.351Z,28
2023-02-09T05:36:41.399Z,22
2023-02-09T05:42:17.824Z,54
2023-02-09T05:48:14.996Z,29
2023-02-09T05:53:49.817Z,16
2023-02-09T05:59:33.724Z,16
2023-02-09T06:05:18.509Z,18
2023-02-09T06:10:57.149Z,30
2023-02-09T06:16:37.247Z,12
2023-02-09T06:22:13.930Z,40
2023-02-09T06:27:55.892Z,31
2023-02-09T06:33:31.356Z,24
2023-02-09T06:39:06.837Z,14
2023-02-09T06:45:03.150Z,8
2023-02-09T06:50:42.019Z,12
2023-02-09T06:56:31.379Z,38
2023-02-09T07:02:20.881Z,16
2023-02-09T07:08:43.355Z,4
2023-02-09T07:14:33.537Z,10
2023-02-09T07:20:10.874Z,38
2023-02-09T07:25:53.411Z,24
2023-02-09T07:31:31.479Z,40
2023-02-09T07:37:10.791Z,36
2023-02-09T07:42:46.655Z,14
2023-02-09T07:48:43.598Z,34
2023-02-09T07:54:18.439Z,14
2023-02-09T08:00:19.792Z,34
2023-02-09T08:06:19.442Z,22
2023-02-09T08:12:28.242Z,30
2023-02-09T08:18:06.377Z,14
2023-02-09T08:23:50.963Z,20
2023-02-09T08:29:28.046Z,79
2023-02-09T08:35:04.756Z,36
2023-02-09T08:40:41.136Z,83
2023-02-09T08:46:25.668Z,50
2023-02-09T08:52:04.919Z,118
2023-02-09T08:57:45.904Z,68
2023-02-09T09:03:22.030Z,60
2023-02-09T09:08:57.706Z,76
2023-02-09T09:14:33.406Z,60
2023-02-09T09:20:08.526Z,46
2023-02-09T09:25:48.280Z,28
2023-02-09T09:31:26.607Z,20
2023-02-09T09:37:02.649Z,10
2023-02-09T09:42:39.860Z,32
2023-02-09T09:48:15.402Z,14
2023-02-09T09:53:51.460Z,22
2023-02-09T09:59:27.842Z,30
2023-02-09T10:05:03.470Z,18
2023-02-09T10:10:38.721Z,24
2023-02-09T10:16:14.311Z,14
2023-02-09T10:21:49.463Z,12
2023-02-09T10:27:24.406Z,16
2023-02-09T10:32:59.672Z,30
2023-02-09T10:38:35.218Z,12
2023-02-09T10:44:11.373Z,32
2023-02-09T10:49:46.802Z,16
2023-02-09T10:55:22.044Z,16
2023-02-09T11:00:57.396Z,24
2023-02-09T11:06:32.825Z,12
2023-02-09T11:12:08.145Z,18
2023-02-09T11:17:43.750Z,10
2023-02-09T11:23:21.051Z,36
2023-02-09T11:28:56.708Z,35
2023-02-09T11:34:31.934Z,12
2023-02-09T11:40:08.112Z,24
2023-02-09T11:45:43.647Z,22
2023-02-09T11:51:18.731Z,26
2023-02-09T11:56:55.050Z,25
2023-02-09T12:02:31.833Z,26
2023-02-09T12:08:10.065Z,10
2023-02-09T12:13:45.716Z,20
2023-02-09T12:19:25.546Z,10
2023-02-09T12:25:01.055Z,24
2023-02-09T12:30:48.496Z,12
2023-02-09T12:36:25.090Z,8
2023-02-09T12:42:00.191Z,10
2023-02-09T12:47:35.441Z,32
2023-02-09T12:53:10.961Z,4
2023-02-09T12:58:46.342Z,8
2023-02-09T13:04:21.980Z,8
2023-02-09T13:09:57.725Z,8
2023-02-09T13:15:32.892Z,4
2023-02-09T13:21:09.056Z,10
2023-02-09T13:26:44.733Z,6
2023-02-09T13:32:20.183Z,6
2023-02-09T13:37:55.961Z,6
2023-02-09T13:43:40.588Z,12
2023-02-09T13:49:15.879Z,4
2023-02-09T13:54:51.310Z,2
2023-02-09T14:00:27.067Z,2
2023-02-09T14:06:02.572Z,6
2023-02-09T14:11:44.210Z,10
2023-02-09T14:17:27.298Z,16
2023-02-09T14:23:03.872Z,12
2023-02-09T14:28:40.263Z,12
2023-02-09T14:34:16.128Z,6
2023-02-09T14:39:51.678Z,6
2023-02-09T14:45:30.759Z,2
2023-02-09T14:51:09.148Z,12
2023-02-09T14:56:44.464Z,0
2023-02-09T15:02:21.808Z,6
2023-02-09T15:07:57.639Z,8
2023-02-09T15:13:33.016Z,6
2023-02-09T15:19:09.118Z,22
2023-02-09T15:24:44.196Z,6
2023-02-09T15:30:19.347Z,10
2023-02-09T15:35:54.600Z,6
2023-02-09T15:41:29.584Z,8
2023-02-09T15:47:05.848Z,4
2023-02-09T15:52:46.210Z,10
2023-02-09T15:58:21.133Z,4
2023-02-09T16:04:15.899Z,20
2023-02-09T16:09:51.672Z,6
2023-02-09T16:15:26.980Z,24
2023-02-09T16:21:02.264Z,10
2023-02-09T16:26:37.388Z,12
2023-02-09T16:32:12.997Z,2
2023-02-09T16:37:48.643Z,6
2023-02-09T16:43:25.052Z,10
2023-02-09T16:49:00.704Z,6
2023-02-09T16:54:38.435Z,0
2023-02-09T17:00:13.880Z,10
2023-02-09T17:05:51.559Z,8
2023-02-09T17:11:26.404Z,6
2023-02-09T17:17:12.982Z,10
2023-02-09T17:22:48.309Z,10
2023-02-09T17:28:23.925Z,12
2023-02-09T17:34:00.812Z,14
2023-02-09T17:39:37.936Z,2
2023-02-09T17:45:14.615Z,4
2023-02-09T17:50:53.173Z,8
2023-02-09T17:56:31.846Z,16
2023-02-09T18:02:13.153Z,4
2023-02-09T18:07:58.953Z,22
2023-02-09T18:13:45.289Z,6
2023-02-09T18:19:38.562Z,16
2023-02-09T18:25:21.460Z,12
2023-02-09T18:31:22.853Z,16
2023-02-09T18:37:02.872Z,26
2023-02-09T18:42:37.977Z,28
2023-02-09T18:48:22.938Z,46
2023-02-09T18:54:17.370Z,22
2023-02-09T19:00:02.749Z,73
2023-02-09T19:05:43.284Z,18
2023-02-09T19:11:27.362Z,24
2023-02-09T19:17:06.614Z,34
2023-02-09T19:22:43.408Z,28
2023-02-09T19:28:26.260Z,14
2023-02-09T19:34:01.536Z,28
2023-02-09T19:39:47.005Z,38
2023-02-09T19:45:22.714Z,26
2023-02-09T19:50:58.328Z,24
2023-02-09T19:56:37.402Z,46
2023-02-09T20:02:25.937Z,38
2023-02-09T20:09:08.481Z,16
2023-02-09T20:14:50.995Z,39
2023-02-09T20:20:28.346Z,45
2023-02-09T20:26:03.480Z,34
2023-02-09T20:31:44.951Z,32
2023-02-09T20:37:29.204Z,32
2023-02-09T20:43:04.764Z,50
2023-02-09T20:49:01.678Z,50
2023-02-09T20:54:37.792Z,34
2023-02-09T21:00:24.114Z,26
2023-02-09T21:06:06.930Z,67
2023-02-09T21:11:51.143Z,32
2023-02-09T21:17:30.610Z,42
2023-02-09T21:23:15.771Z,122
2023-02-09T21:29:01.033Z,87
2023-02-09T21:34:37.445Z,90
2023-02-09T21:40:14.254Z,102
2023-02-09T21:45:49.657Z,46
2023-02-09T21:51:34.912Z,71
2023-02-09T21:57:10.546Z,56
2023-02-09T22:02:45.754Z,50
2023-02-09T22:08:22.189Z,80
2023-02-09T22:13:57.339Z,36
2023-02-09T22:19:32.466Z,28
2023-02-09T22:25:07.469Z,54
2023-02-09T22:30:44.696Z,65
2023-02-09T22:36:50.882Z,66
2023-02-09T22:42:47.531Z,58
2023-02-09T22:48:27.024Z,32
2023-02-09T22:54:52.343Z,38
2023-02-09T23:00:27.854Z,28
2023-02-09T23:06:02.935Z,44
2023-02-09T23:11:51.602Z,54
2023-02-09T23:17:29.086Z,83
2023-02-09T23:23:04.304Z,65
2023-02-09T23:28:39.828Z,115
2023-02-09T23:34:15.963Z,107
2023-02-09T23:39:52.966Z,76
2023-02-09T23:45:29.005Z,71
2023-02-09T23:51:04.417Z,87
2023-02-09T23:56:52.802Z,71
